sensor_id;sensor_type;location;lat;lon;timestamp;pressure;altitude;pressure_sealevel;temperature;humidity
41945;BME280;63122;52.424;13.458;2024-02-23T01:07:05;97972.91;;;9.21;100.00
41945;BME280;63122;52.424;13.458;2024-02-23T01:09:01;97969.69;;;9.26;100.00
41945;BME280;63122;52.424;13.458;2024-02-23T01:10:59;97973.31;;;9.31;100.00
41945;BME280;63122;52.424;13.458;2024-02-23T01:12:53;97978.16;;;9.34;100.00
41945;BME280;63122;52.424;13.458;2024-02-23T01:14:48;97978.53;;;9.38;100.00
41945;BME280;63122;52.424;13.458;2024-02-23T01:16:44;98009.88;;;9.40;100.00
41945;BME280;63122;52.424;13.458;2024-02-23T01:18:39;97994.09;;;9.46;100.00
41945;BME280;63122;52.424;13.458;2024-02-23T01:20:34;97971.38;;;9.52;100.00
41945;BME280;63122;52.424;13.458;2024-02-23T01:22:30;97995.84;;;9.59;100.00
41945;BME280;63122;52.424;13.458;2024-02-23T01:24:25;98008.56;;;9.62;100.00
41945;BME280;63122;52.424;13.458;2024-02-23T01:26:19;98009.16;;;9.71;100.00
41945;BME280;63122;52.424;13.458;2024-02-23T01:28:15;98002.44;;;9.75;100.00
41945;BME280;63122;52.424;13.458;2024-02-23T01:30:11;98001.22;;;9.78;100.00
41945;BME280;63122;52.424;13.458;2024-02-23T01:32:05;97984.16;;;9.80;100.00
41945;BME280;63122;52.424;13.458;2024-02-23T01:34:00;97986.22;;;9.78;100.00
41945;BME280;63122;52.424;13.458;2024-02-23T01:35:53;98000.78;;;9.81;100.00
41945;BME280;63122;52.424;13.458;2024-02-23T01:37:56;98010.91;;;9.84;100.00
41945;BME280;63122;52.424;13.458;2024-02-23T01:39:49;98030.13;;;9.85;100.00
41945;BME280;63122;52.424;13.458;2024-02-23T01:41:45;98038.00;;;9.85;100.00
41945;BME280;63122;52.424;13.458;2024-02-23T01:46:04;98021.38;;;9.91;100.00
41945;BME280;63122;52.424;13.458;2024-02-23T01:48:01;98023.00;;;9.92;100.00
41945;BME280;63122;52.424;13.458;2024-02-23T01:49:58;98027.25;;;9.93;100.00
41945;BME280;63122;52.424;13.458;2024-02-23T01:51:54;98023.00;;;9.92;100.00
41945;BME280;63122;52.424;13.458;2024-02-23T01:53:50;98058.22;;;9.91;100.00
41945;BME280;63122;52.424;13.458;2024-02-23T01:55:47;98054.81;;;9.90;100.00
41945;BME280;63122;52.424;13.458;2024-02-23T01:57:42;98058.22;;;9.91;100.00
41945;BME280;63122;52.424;13.458;2024-02-23T01:59:42;98070.19;;;9.93;100.00
41945;BME280;63122;52.424;13.458;2024-02-23T02:01:43;98083.16;;;9.95;100.00
41945;BME280;63122;52.424;13.458;2024-02-23T02:03:38;98078.47;;;9.97;100.00
41945;BME280;63122;52.424;13.458;2024-02-23T02:05:35;98159.88;;;10.05;100.00
41945;BME280;63122;52.424;13.458;2024-02-23T02:07:31;98112.22;;;10.14;100.00
41945;BME280;63122;52.424;13.458;2024-02-23T02:09:24;98127.41;;;10.18;100.00
41945;BME280;63122;52.424;13.458;2024-02-23T02:11:19;98133.44;;;10.19;100.00
41945;BME280;63122;52.424;13.458;2024-02-23T02:13:15;98150.69;;;10.15;100.00
41945;BME280;63122;52.424;13.458;2024-02-23T02:15:10;98161.88;;;10.10;100.00
41945;BME280;63122;52.424;13.458;2024-02-23T02:17:05;98188.25;;;10.03;100.00
41945;BME280;63122;52.424;13.458;2024-02-23T02:19:01;98171.88;;;9.94;100.00
41945;BME280;63122;52.424;13.458;2024-02-23T02:20:55;98134.81;;;9.89;100.00
41945;BME280;63122;52.424;13.458;2024-02-23T02:22:51;98148.41;;;9.86;100.00
41945;BME280;63122;52.424;13.458;2024-02-23T02:24:44;98166.84;;;9.79;100.00
41945;BME280;63122;52.424;13.458;2024-02-23T02:26:40;98172.38;;;9.71;100.00
41945;BME280;63122;52.424;13.458;2024-02-23T02:28:37;98192.41;;;9.65;100.00
41945;BME280;63122;52.424;13.458;2024-02-23T02:30:33;98199.91;;;9.62;100.00
41945;BME280;63122;52.424;13.458;2024-02-23T02:32:28;98197.91;;;9.57;100.00
41945;BME280;63122;52.424;13.458;2024-02-23T02:34:28;98207.44;;;9.51;100.00
41945;BME280;63122;52.424;13.458;2024-02-23T02:36:24;98211.25;;;9.49;100.00
41945;BME280;63122;52.424;13.458;2024-02-23T02:38:19;98182.53;;;9.47;100.00
41945;BME280;63122;52.424;13.458;2024-02-23T02:40:14;98216.34;;;9.44;100.00
41945;BME280;63122;52.424;13.458;2024-02-23T02:42:09;98238.41;;;9.43;100.00
41945;BME280;63122;52.424;13.458;2024-02-23T02:44:05;98253.59;;;9.41;100.00
41945;BME280;63122;52.424;13.458;2024-02-23T02:46:02;98225.06;;;9.38;100.00
41945;BME280;63122;52.424;13.458;2024-02-23T02:48:00;98249.13;;;9.34;100.00
41945;BME280;63122;52.424;13.458;2024-02-23T02:49:55;98234.56;;;9.32;100.00
41945;BME280;63122;52.424;13.458;2024-02-23T02:51:50;98219.59;;;9.26;100.00
41945;BME280;63122;52.424;13.458;2024-02-23T02:54:00;98250.56;;;9.24;100.00
41945;BME280;63122;52.424;13.458;2024-02-23T02:55:55;98240.03;;;9.24;100.00
41945;BME280;63122;52.424;13.458;2024-02-23T02:57:50;98245.69;;;9.20;100.00
41945;BME280;63122;52.424;13.458;2024-02-23T02:59:46;98246.09;;;9.17;100.00
41945;BME280;63122;52.424;13.458;2024-02-23T03:01:43;98289.81;;;9.18;100.00
41945;BME280;63122;52.424;13.458;2024-02-23T03:04:02;98241.63;;;9.18;100.00
41945;BME280;63122;52.424;13.458;2024-02-23T03:06:29;98253.00;;;9.18;100.00
41945;BME280;63122;52.424;13.458;2024-02-23T03:09:32;98279.28;;;9.12;100.00
41945;BME280;63122;52.424;13.458;2024-02-23T03:12:12;98302.56;;;9.08;100.00
41945;BME280;63122;52.424;13.458;2024-02-23T03:17:49;98299.94;;;9.08;100.00
41945;BME280;63122;52.424;13.458;2024-02-23T03:21:20;98294.66;;;9.01;100.00
41945;BME280;63122;52.424;13.458;2024-02-23T03:27:53;98308.59;;;9.02;100.00
41945;BME280;63122;52.424;13.458;2024-02-23T03:30:29;98317.69;;;8.99;100.00
41945;BME280;63122;52.424;13.458;2024-02-23T03:33:04;98344.00;;;8.99;100.00
41945;BME280;63122;52.424;13.458;2024-02-23T03:35:40;98330.03;;;8.99;100.00
41945;BME280;63122;52.424;13.458;2024-02-23T03:37:57;98333.88;;;8.96;100.00
41945;BME280;63122;52.424;13.458;2024-02-23T03:40:07;98346.22;;;8.96;100.00
41945;BME280;63122;52.424;13.458;2024-02-23T03:42:18;98368.44;;;8.93;100.00
41945;BME280;63122;52.424;13.458;2024-02-23T03:44:30;98346.41;;;8.94;100.00
41945;BME280;63122;52.424;13.458;2024-02-23T03:46:51;98352.25;;;8.89;100.00
41945;BME280;63122;52.424;13.458;2024-02-23T03:49:11;98363.56;;;8.90;100.00
41945;BME280;63122;52.424;13.458;2024-02-23T03:51:46;98365.59;;;8.88;100.00
41945;BME280;63122;52.424;13.458;2024-02-23T03:54:07;98370.44;;;8.84;100.00
41945;BME280;63122;52.424;13.458;2024-02-23T03:56:03;98364.59;;;8.82;100.00
41945;BME280;63122;52.424;13.458;2024-02-23T03:57:56;98380.72;;;8.79;100.00
41945;BME280;63122;52.424;13.458;2024-02-23T03:59:52;98382.94;;;8.75;100.00
41945;BME280;63122;52.424;13.458;2024-02-23T04:01:47;98381.31;;;8.74;100.00
41945;BME280;63122;52.424;13.458;2024-02-23T04:03:43;98389.22;;;8.74;100.00
41945;BME280;63122;52.424;13.458;2024-02-23T04:05:35;98393.03;;;8.72;100.00
41945;BME280;63122;52.424;13.458;2024-02-23T04:07:31;98431.84;;;8.70;100.00
41945;BME280;63122;52.424;13.458;2024-02-23T04:09:29;98404.56;;;8.71;100.00
41945;BME280;63122;52.424;13.458;2024-02-23T04:11:22;98430.66;;;8.72;100.00
41945;BME280;63122;52.424;13.458;2024-02-23T04:13:17;98423.38;;;8.74;100.00
41945;BME280;63122;52.424;13.458;2024-02-23T04:15:10;98437.72;;;8.72;100.00
41945;BME280;63122;52.424;13.458;2024-02-23T04:17:06;98429.22;;;8.70;100.00
41945;BME280;63122;52.424;13.458;2024-02-23T04:19:02;98432.41;;;8.65;100.00
41945;BME280;63122;52.424;13.458;2024-02-23T04:20:57;98430.19;;;8.62;100.00
41945;BME280;63122;52.424;13.458;2024-02-23T04:22:53;98448.97;;;8.59;100.00
41945;BME280;63122;52.424;13.458;2024-02-23T04:24:50;98476.25;;;8.58;100.00
41945;BME280;63122;52.424;13.458;2024-02-23T04:26:46;98463.31;;;8.56;100.00
41945;BME280;63122;52.424;13.458;2024-02-23T04:28:39;98458.25;;;8.55;100.00
41945;BME280;63122;52.424;13.458;2024-02-23T04:30:34;98460.06;;;8.54;100.00
41945;BME280;63122;52.424;13.458;2024-02-23T04:32:27;98478.66;;;8.53;100.00
41945;BME280;63122;52.424;13.458;2024-02-23T04:34:23;98466.88;;;8.48;100.00
41945;BME280;63122;52.424;13.458;2024-02-23T04:36:19;98494.53;;;8.44;100.00
41945;BME280;63122;52.424;13.458;2024-02-23T04:38:15;98479.94;;;8.42;100.00
41945;BME280;63122;52.424;13.458;2024-02-23T04:40:13;98499.72;;;8.38;100.00
41945;BME280;63122;52.424;13.458;2024-02-23T04:42:08;98495.66;;;8.35;100.00
41945;BME280;63122;52.424;13.458;2024-02-23T04:44:01;98495.88;;;8.33;100.00
41945;BME280;63122;52.424;13.458;2024-02-23T04:45:57;98505.75;;;8.31;100.00
41945;BME280;63122;52.424;13.458;2024-02-23T04:47:49;98512.00;;;8.30;100.00
41945;BME280;63122;52.424;13.458;2024-02-23T04:49:45;98515.81;;;8.28;100.00
41945;BME280;63122;52.424;13.458;2024-02-23T04:51:41;98526.53;;;8.26;100.00
41945;BME280;63122;52.424;13.458;2024-02-23T04:53:37;98533.59;;;8.26;100.00
41945;BME280;63122;52.424;13.458;2024-02-23T04:55:35;98538.03;;;8.25;100.00
41945;BME280;63122;52.424;13.458;2024-02-23T04:57:31;98548.09;;;8.21;100.00
41945;BME280;63122;52.424;13.458;2024-02-23T04:59:26;98554.53;;;8.19;100.00
41945;BME280;63122;52.424;13.458;2024-02-23T05:01:24;98558.34;;;8.16;100.00
41945;BME280;63122;52.424;13.458;2024-02-23T05:03:19;98551.66;;;8.14;100.00
41945;BME280;63122;52.424;13.458;2024-02-23T05:05:15;98557.28;;;8.11;100.00
41945;BME280;63122;52.424;13.458;2024-02-23T05:07:07;98575.22;;;8.07;100.00
41945;BME280;63122;52.424;13.458;2024-02-23T05:09:03;98571.97;;;8.05;100.00
41945;BME280;63122;52.424;13.458;2024-02-23T05:10:58;98575.59;;;8.04;100.00
41945;BME280;63122;52.424;13.458;2024-02-23T05:12:54;98588.94;;;8.02;100.00
41945;BME280;63122;52.424;13.458;2024-02-23T05:14:52;98586.06;;;7.97;100.00
41945;BME280;63122;52.424;13.458;2024-02-23T05:16:47;98590.03;;;7.93;100.00
41945;BME280;63122;52.424;13.458;2024-02-23T05:18:42;98584.13;;;7.91;100.00
41945;BME280;63122;52.424;13.458;2024-02-23T05:20:36;98571.13;;;7.83;100.00
41945;BME280;63122;52.424;13.458;2024-02-23T05:22:31;98585.25;;;7.82;100.00
41945;BME280;63122;52.424;13.458;2024-02-23T05:24:24;98589.06;;;7.79;100.00
41945;BME280;63122;52.424;13.458;2024-02-23T05:26:21;98587.81;;;7.75;100.00
41945;BME280;63122;52.424;13.458;2024-02-23T05:28:14;98610.63;;;7.74;100.00
41945;BME280;63122;52.424;13.458;2024-02-23T05:30:11;98596.88;;;7.72;100.00
41945;BME280;63122;52.424;13.458;2024-02-23T05:32:07;98619.88;;;7.70;100.00
41945;BME280;63122;52.424;13.458;2024-02-23T05:34:03;98637.41;;;7.70;100.00
41945;BME280;63122;52.424;13.458;2024-02-23T05:35:58;98632.91;;;7.63;100.00
41945;BME280;63122;52.424;13.458;2024-02-23T05:37:53;98635.69;;;7.62;100.00
41945;BME280;63122;52.424;13.458;2024-02-23T05:39:49;98647.56;;;7.58;100.00
41945;BME280;63122;52.424;13.458;2024-02-23T05:41:47;98663.50;;;7.56;100.00
41945;BME280;63122;52.424;13.458;2024-02-23T05:43:42;98661.41;;;7.52;100.00
41945;BME280;63122;52.424;13.458;2024-02-23T05:45:37;98674.69;;;7.50;100.00
41945;BME280;63122;52.424;13.458;2024-02-23T05:47:33;98681.13;;;7.47;100.00
41945;BME280;63122;52.424;13.458;2024-02-23T05:49:28;98683.13;;;7.45;100.00
41945;BME280;63122;52.424;13.458;2024-02-23T05:51:21;98678.88;;;7.44;100.00
41945;BME280;63122;52.424;13.458;2024-02-23T05:53:17;98684.28;;;7.43;100.00
41945;BME280;63122;52.424;13.458;2024-02-23T05:55:13;98689.72;;;7.41;100.00
41945;BME280;63122;52.424;13.458;2024-02-23T05:57:11;98690.25;;;7.37;100.00
41945;BME280;63122;52.424;13.458;2024-02-23T05:59:04;98700.91;;;7.35;100.00
41945;BME280;63122;52.424;13.458;2024-02-23T06:01:00;98698.28;;;7.35;100.00
41945;BME280;63122;52.424;13.458;2024-02-23T06:02:56;98696.84;;;7.32;100.00
41945;BME280;63122;52.424;13.458;2024-02-23T06:04:52;98721.34;;;7.25;100.00
41945;BME280;63122;52.424;13.458;2024-02-23T06:06:45;98718.09;;;7.23;100.00
41945;BME280;63122;52.424;13.458;2024-02-23T06:08:41;98729.72;;;7.20;100.00
41945;BME280;63122;52.424;13.458;2024-02-23T06:10:36;98738.44;;;7.20;100.00
41945;BME280;63122;52.424;13.458;2024-02-23T06:12:32;98756.94;;;7.19;100.00
41945;BME280;63122;52.424;13.458;2024-02-23T06:14:28;98738.16;;;7.15;100.00
41945;BME280;63122;52.424;13.458;2024-02-23T06:16:23;98743.56;;;7.14;100.00
41945;BME280;63122;52.424;13.458;2024-02-23T06:18:19;98767.03;;;7.07;100.00
41945;BME280;63122;52.424;13.458;2024-02-23T06:20:12;98764.41;;;7.07;100.00
41945;BME280;63122;52.424;13.458;2024-02-23T06:22:07;98771.84;;;7.03;100.00
41945;BME280;63122;52.424;13.458;2024-02-23T06:24:04;98779.06;;;7.01;100.00
41945;BME280;63122;52.424;13.458;2024-02-23T06:26:02;98791.69;;;6.98;100.00
41945;BME280;63122;52.424;13.458;2024-02-23T06:28:00;98788.06;;;6.99;100.00
41945;BME280;63122;52.424;13.458;2024-02-23T06:29:55;98783.81;;;6.98;100.00
41945;BME280;63122;52.424;13.458;2024-02-23T06:31:52;98782.53;;;6.94;100.00
41945;BME280;63122;52.424;13.458;2024-02-23T06:33:48;98791.22;;;6.94;100.00
41945;BME280;63122;52.424;13.458;2024-02-23T06:35:44;98789.59;;;6.93;100.00
41945;BME280;63122;52.424;13.458;2024-02-23T06:37:39;98803.31;;;6.95;100.00
41945;BME280;63122;52.424;13.458;2024-02-23T06:39:35;98803.31;;;6.95;100.00
41945;BME280;63122;52.424;13.458;2024-02-23T06:41:30;98809.06;;;6.99;100.00
41945;BME280;63122;52.424;13.458;2024-02-23T06:43:29;98800.19;;;7.00;100.00
41945;BME280;63122;52.424;13.458;2024-02-23T06:45:22;98807.06;;;7.01;100.00
41945;BME280;63122;52.424;13.458;2024-02-23T06:47:18;98806.44;;;6.99;100.00
41945;BME280;63122;52.424;13.458;2024-02-23T06:49:14;98814.66;;;6.96;100.00
41945;BME280;63122;52.424;13.458;2024-02-23T06:51:12;98821.03;;;6.93;100.00
41945;BME280;63122;52.424;13.458;2024-02-23T06:53:08;98825.47;;;6.93;100.00
41945;BME280;63122;52.424;13.458;2024-02-23T06:55:02;98818.25;;;6.95;100.00
41945;BME280;63122;52.424;13.458;2024-02-23T06:56:58;98825.47;;;6.93;100.00
41945;BME280;63122;52.424;13.458;2024-02-23T06:58:56;98829.44;;;6.88;100.00
41945;BME280;63122;52.424;13.458;2024-02-23T07:00:51;98849.94;;;6.85;100.00
41945;BME280;63122;52.424;13.458;2024-02-23T07:02:44;98857.16;;;6.83;100.00
41945;BME280;63122;52.424;13.458;2024-02-23T07:04:40;98847.66;;;6.82;100.00
41945;BME280;63122;52.424;13.458;2024-02-23T07:06:35;98836.34;;;6.81;100.00
41945;BME280;63122;52.424;13.458;2024-02-23T07:08:31;98839.78;;;6.82;100.00
41945;BME280;63122;52.424;13.458;2024-02-23T07:10:26;98842.56;;;6.80;100.00
41945;BME280;63122;52.424;13.458;2024-02-23T07:12:22;98857.31;;;6.81;100.00
41945;BME280;63122;52.424;13.458;2024-02-23T07:14:21;98871.06;;;6.83;100.00
41945;BME280;63122;52.424;13.458;2024-02-23T07:16:17;98865.81;;;6.83;100.00
41945;BME280;63122;52.424;13.458;2024-02-23T07:18:10;98866.16;;;6.80;100.00
41945;BME280;63122;52.424;13.458;2024-02-23T07:20:09;98863.38;;;6.82;100.00
41945;BME280;63122;52.424;13.458;2024-02-23T07:22:02;98865.16;;;6.81;100.00
41945;BME280;63122;52.424;13.458;2024-02-23T07:23:57;98868.44;;;6.83;100.00
41945;BME280;63122;52.424;13.458;2024-02-23T07:25:52;98873.16;;;6.88;100.00
41945;BME280;63122;52.424;13.458;2024-02-23T07:27:48;98873.81;;;6.90;100.00
41945;BME280;63122;52.424;13.458;2024-02-23T07:29:46;98877.91;;;6.93;100.00
41945;BME280;63122;52.424;13.458;2024-02-23T07:31:42;98873.66;;;6.91;100.00
41945;BME280;63122;52.424;13.458;2024-02-23T07:33:37;98880.34;;;6.94;100.00
41945;BME280;63122;52.424;13.458;2024-02-23T07:35:33;98891.66;;;6.95;100.00
41945;BME280;63122;52.424;13.458;2024-02-23T07:37:26;98891.81;;;6.93;100.00
41945;BME280;63122;52.424;13.458;2024-02-23T07:39:21;98891.66;;;6.95;100.00
41945;BME280;63122;52.424;13.458;2024-02-23T07:41:17;98890.47;;;6.97;100.00
41945;BME280;63122;52.424;13.458;2024-02-23T07:43:13;98886.56;;;7.01;100.00
41945;BME280;63122;52.424;13.458;2024-02-23T07:45:10;98883.75;;;7.03;100.00
41945;BME280;63122;52.424;13.458;2024-02-23T07:47:05;98889.34;;;7.00;100.00
41945;BME280;63122;52.424;13.458;2024-02-23T07:49:01;98888.19;;;7.02;100.00
41945;BME280;63122;52.424;13.458;2024-02-23T07:50:56;98901.47;;;7.01;100.00
41945;BME280;63122;52.424;13.458;2024-02-23T07:52:51;98906.69;;;7.01;100.00
41945;BME280;63122;52.424;13.458;2024-02-23T07:54:44;98912.94;;;7.00;100.00
41945;BME280;63122;52.424;13.458;2024-02-23T07:56:39;98914.91;;;6.98;100.00
41945;BME280;63122;52.424;13.458;2024-02-23T07:58:32;98928.53;;;6.93;100.00
41945;BME280;63122;52.424;13.458;2024-02-23T08:00:30;98934.59;;;6.94;100.00
41945;BME280;63122;52.424;13.458;2024-02-23T08:02:28;98950.47;;;6.92;100.00
41945;BME280;63122;52.424;13.458;2024-02-23T08:04:23;98948.34;;;6.96;100.00
41945;BME280;63122;52.424;13.458;2024-02-23T08:06:19;98937.34;;;7.00;100.00
41945;BME280;63122;52.424;13.458;2024-02-23T08:08:14;98940.63;;;7.02;100.00
41945;BME280;63122;52.424;13.458;2024-02-23T08:10:11;98963.88;;;7.05;100.00
41945;BME280;63122;52.424;13.458;2024-02-23T08:12:08;98952.41;;;7.06;100.00
41945;BME280;63122;52.424;13.458;2024-02-23T08:14:07;98955.81;;;7.15;100.00
41945;BME280;63122;52.424;13.458;2024-02-23T08:16:05;98959.72;;;7.19;100.00
41945;BME280;63122;52.424;13.458;2024-02-23T08:18:01;98949.22;;;7.19;100.00
41945;BME280;63122;52.424;13.458;2024-02-23T08:19:57;98963.78;;;7.22;100.00
41945;BME280;63122;52.424;13.458;2024-02-23T08:21:50;98970.50;;;7.25;100.00
41945;BME280;63122;52.424;13.458;2024-02-23T08:23:45;98987.19;;;7.32;100.00
41945;BME280;63122;52.424;13.458;2024-02-23T08:25:41;98968.03;;;7.31;100.00
41945;BME280;63122;52.424;13.458;2024-02-23T08:27:37;98976.69;;;7.32;100.00
41945;BME280;63122;52.424;13.458;2024-02-23T08:29:33;98985.84;;;7.36;100.00
41945;BME280;63122;52.424;13.458;2024-02-23T08:31:32;99014.06;;;7.34;100.00
41945;BME280;63122;52.424;13.458;2024-02-23T08:33:34;98994.41;;;7.30;100.00
41945;BME280;63122;52.424;13.458;2024-02-23T08:35:29;99000.16;;;7.25;100.00
41945;BME280;63122;52.424;13.458;2024-02-23T08:37:26;98985.59;;;7.23;100.00
41945;BME280;63122;52.424;13.458;2024-02-23T08:39:21;98991.00;;;7.21;100.00
41945;BME280;63122;52.424;13.458;2024-02-23T08:41:17;98992.47;;;7.24;100.00
41945;BME280;63122;52.424;13.458;2024-02-23T08:43:13;98984.25;;;7.27;100.00
41945;BME280;63122;52.424;13.458;2024-02-23T08:45:07;98975.41;;;7.28;100.00
41945;BME280;63122;52.424;13.458;2024-02-23T08:47:07;98977.53;;;7.32;100.00
41945;BME280;63122;52.424;13.458;2024-02-23T08:49:04;98989.31;;;7.37;100.00
41945;BME280;63122;52.424;13.458;2024-02-23T08:50:57;99000.59;;;7.37;100.00
41945;BME280;63122;52.424;13.458;2024-02-23T08:52:52;99011.94;;;7.38;100.00
41945;BME280;63122;52.424;13.458;2024-02-23T08:54:50;98999.63;;;7.38;100.00
41945;BME280;63122;52.424;13.458;2024-02-23T08:56:43;98998.94;;;7.44;100.00
41945;BME280;63122;52.424;13.458;2024-02-23T08:58:38;99017.41;;;7.59;100.00
41945;BME280;63122;52.424;13.458;2024-02-23T09:00:34;99013.09;;;7.67;100.00
41945;BME280;63122;52.424;13.458;2024-02-23T09:02:32;99003.34;;;7.75;100.00
41945;BME280;63122;52.424;13.458;2024-02-23T09:04:25;99011.81;;;7.86;100.00
41945;BME280;63122;52.424;13.458;2024-02-23T09:06:22;99003.72;;;7.96;100.00
41945;BME280;63122;52.424;13.458;2024-02-23T09:08:18;99007.63;;;8.00;100.00
41945;BME280;63122;52.424;13.458;2024-02-23T09:10:13;99004.81;;;8.01;100.00
41945;BME280;63122;52.424;13.458;2024-02-23T09:12:10;99010.06;;;8.01;100.00
41945;BME280;63122;52.424;13.458;2024-02-23T09:14:08;99017.47;;;7.98;100.00
41945;BME280;63122;52.424;13.458;2024-02-23T09:16:04;99026.00;;;8.00;100.00
41945;BME280;63122;52.424;13.458;2024-02-23T09:18:04;99022.56;;;7.99;100.00
41945;BME280;63122;52.424;13.458;2024-02-23T09:20:00;99026.00;;;8.00;100.00
41945;BME280;63122;52.424;13.458;2024-02-23T09:21:55;99044.09;;;7.95;100.00
41945;BME280;63122;52.424;13.458;2024-02-23T09:23:52;99033.47;;;7.88;100.00
41945;BME280;63122;52.424;13.458;2024-02-23T09:25:48;99028.84;;;7.90;100.00
41945;BME280;63122;52.424;13.458;2024-02-23T09:27:44;99043.59;;;7.91;100.00
41945;BME280;63122;52.424;13.458;2024-02-23T09:29:36;99038.31;;;7.99;100.00
41945;BME280;63122;52.424;13.458;2024-02-23T09:31:32;99034.47;;;8.10;100.00
41945;BME280;63122;52.424;13.458;2024-02-23T09:33:31;99050.97;;;8.19;100.00
41945;BME280;63122;52.424;13.458;2024-02-23T09:35:26;99046.91;;;8.16;100.00
41945;BME280;63122;52.424;13.458;2024-02-23T09:37:22;99056.06;;;8.20;100.00
41945;BME280;63122;52.424;13.458;2024-02-23T09:39:15;99049.34;;;8.18;100.00
41945;BME280;63122;52.424;13.458;2024-02-23T09:41:17;99059.31;;;8.23;98.11
41945;BME280;63122;52.424;13.458;2024-02-23T09:43:14;99079.88;;;8.19;93.72
41945;BME280;63122;52.424;13.458;2024-02-23T09:45:11;99070.19;;;8.19;100.00
41945;BME280;63122;52.424;13.458;2024-02-23T09:47:06;99057.84;;;8.20;100.00
41945;BME280;63122;52.424;13.458;2024-02-23T09:49:07;99073.25;;;8.23;99.38
41945;BME280;63122;52.424;13.458;2024-02-23T09:51:06;99066.06;;;8.25;100.00
41945;BME280;63122;52.424;13.458;2024-02-23T09:53:04;99091.28;;;8.34;100.00
41945;BME280;63122;52.424;13.458;2024-02-23T09:55:01;99089.03;;;8.46;100.00
41945;BME280;63122;52.424;13.458;2024-02-23T09:56:57;99087.66;;;8.59;100.00
41945;BME280;63122;52.424;13.458;2024-02-23T09:58:55;99087.75;;;8.66;100.00
41945;BME280;63122;52.424;13.458;2024-02-23T10:00:48;99087.88;;;8.72;100.00
41945;BME280;63122;52.424;13.458;2024-02-23T10:02:44;99081.44;;;8.75;100.00
41945;BME280;63122;52.424;13.458;2024-02-23T10:04:40;99088.78;;;8.79;100.00
41945;BME280;63122;52.424;13.458;2024-02-23T10:06:37;99086.91;;;8.88;100.00
41945;BME280;63122;52.424;13.458;2024-02-23T10:08:34;99089.53;;;8.88;100.00
41945;BME280;63122;52.424;13.458;2024-02-23T10:10:30;99069.84;;;8.84;100.00
41945;BME280;63122;52.424;13.458;2024-02-23T10:12:23;99063.59;;;8.85;100.00
41945;BME280;63122;52.424;13.458;2024-02-23T10:14:19;99059.41;;;8.91;100.00
41945;BME280;63122;52.424;13.458;2024-02-23T10:16:14;99084.72;;;8.92;100.00
41945;BME280;63122;52.424;13.458;2024-02-23T10:18:08;99085.91;;;8.89;100.00
41945;BME280;63122;52.424;13.458;2024-02-23T10:20:07;99089.69;;;8.87;100.00
41945;BME280;63122;52.424;13.458;2024-02-23T10:22:03;99101.50;;;8.91;100.00
41945;BME280;63122;52.424;13.458;2024-02-23T10:23:56;99101.22;;;8.86;100.00
41945;BME280;63122;52.424;13.458;2024-02-23T10:25:52;99087.69;;;8.74;100.00
41945;BME280;63122;52.424;13.458;2024-02-23T10:27:47;99085.16;;;8.81;100.00
41945;BME280;63122;52.424;13.458;2024-02-23T10:29:43;99082.75;;;8.94;100.00
41945;BME280;63122;52.424;13.458;2024-02-23T10:31:38;99083.41;;;9.11;100.00
41945;BME280;63122;52.424;13.458;2024-02-23T10:33:38;99074.22;;;9.07;92.33
41945;BME280;63122;52.424;13.458;2024-02-23T10:35:36;99076.56;;;9.02;87.75
41945;BME280;63122;52.424;13.458;2024-02-23T10:37:34;99088.28;;;8.99;89.65
41945;BME280;63122;52.424;13.458;2024-02-23T10:39:36;99101.34;;;9.07;90.72
41945;BME280;63122;52.424;13.458;2024-02-23T10:41:35;99096.59;;;9.03;92.24
41945;BME280;63122;52.424;13.458;2024-02-23T10:43:30;99100.88;;;9.04;92.18
41945;BME280;63122;52.424;13.458;2024-02-23T10:45:28;99110.13;;;9.00;91.15
41945;BME280;63122;52.424;13.458;2024-02-23T10:47:24;99096.88;;;8.93;91.69
41945;BME280;63122;52.424;13.458;2024-02-23T10:49:24;99102.84;;;8.87;90.35
41945;BME280;63122;52.424;13.458;2024-02-23T10:51:24;99118.25;;;8.90;89.12
41945;BME280;63122;52.424;13.458;2024-02-23T10:53:19;99131.63;;;8.88;87.21
41945;BME280;63122;52.424;13.458;2024-02-23T10:55:15;99107.84;;;8.97;87.53
41945;BME280;63122;52.424;13.458;2024-02-23T10:57:09;99111.03;;;9.07;87.27
41945;BME280;63122;52.424;13.458;2024-02-23T10:59:08;99107.72;;;9.13;86.76
41945;BME280;63122;52.424;13.458;2024-02-23T11:01:04;99115.75;;;9.12;84.81
41945;BME280;63122;52.424;13.458;2024-02-23T11:03:01;99118.41;;;9.12;85.27
41945;BME280;63122;52.424;13.458;2024-02-23T11:04:57;99126.03;;;9.21;85.57
41945;BME280;63122;52.424;13.458;2024-02-23T11:06:56;99112.97;;;9.43;85.16
41945;BME280;63122;52.424;13.458;2024-02-23T11:08:51;99129.66;;;9.65;83.77
41945;BME280;63122;52.424;13.458;2024-02-23T11:10:50;99132.63;;;9.77;78.83
41945;BME280;63122;52.424;13.458;2024-02-23T11:12:57;99140.81;;;9.83;75.52
41945;BME280;63122;52.424;13.458;2024-02-23T11:14:50;99125.09;;;9.89;76.80
41945;BME280;63122;52.424;13.458;2024-02-23T11:16:51;99130.53;;;9.88;73.16
41945;BME280;63122;52.424;13.458;2024-02-23T11:18:47;99119.19;;;9.87;72.31
41945;BME280;63122;52.424;13.458;2024-02-23T11:20:43;99125.88;;;9.90;71.98
41945;BME280;63122;52.424;13.458;2024-02-23T11:22:41;99124.44;;;9.87;73.22
41945;BME280;63122;52.424;13.458;2024-02-23T11:24:42;99131.09;;;9.83;82.36
41945;BME280;63122;52.424;13.458;2024-02-23T11:26:37;99120.84;;;9.73;75.06
41945;BME280;63122;52.424;13.458;2024-02-23T11:28:41;99128.13;;;9.71;74.62
41945;BME280;63122;52.424;13.458;2024-02-23T11:30:37;99121.72;;;9.80;74.59
41945;BME280;63122;52.424;13.458;2024-02-23T11:32:37;99122.97;;;10.00;75.69